createdAt,value
2022-09-30T00:00:09.901Z,68.60
2022-09-30T00:05:33.191Z,68.50
2022-09-30T00:10:36.444Z,68.50
2022-09-30T00:15:41.310Z,68.20
2022-09-30T00:20:44.567Z,69.20
2022-09-30T00:25:48.195Z,69.10
2022-09-30T00:30:52.869Z,69.30
2022-09-30T00:35:56.240Z,70.70
2022-09-30T00:40:59.843Z,71.30
2022-09-30T00:46:04.750Z,72.60
2022-09-30T00:51:09.085Z,71.70
2022-09-30T00:56:14.910Z,71.40
2022-09-30T01:01:20.253Z,70.90
2022-09-30T01:06:25.079Z,71.00
2022-09-30T01:11:29.052Z,70.40
2022-09-30T01:16:49.113Z,70.40
2022-09-30T01:22:19.072Z,70.40
2022-09-30T01:27:43.364Z,70.40
2022-09-30T01:33:19.752Z,71.80
2022-09-30T01:38:29.491Z,72.00
2022-09-30T01:43:45.473Z,72.40
2022-09-30T01:48:59.643Z,73.30
2022-09-30T01:54:07.386Z,73.50
2022-09-30T01:59:15.881Z,73.10
2022-09-30T02:04:26.366Z,73.10
2022-09-30T02:09:33.735Z,73.90
2022-09-30T02:14:42.456Z,73.70
2022-09-30T02:19:51.849Z,73.40
2022-09-30T02:25:00.308Z,73.40
2022-09-30T02:30:04.959Z,73.90
2022-09-30T02:35:12.843Z,74.90
2022-09-30T02:40:21.355Z,75.60
2022-09-30T02:45:26.109Z,76.60
2022-09-30T02:50:35.190Z,75.90
2022-09-30T02:55:49.959Z,75.20
2022-09-30T03:00:55.239Z,76.40
2022-09-30T03:06:00.274Z,75.20
2022-09-30T03:11:04.836Z,74.60
2022-09-30T03:16:21.874Z,74.90
2022-09-30T03:21:39.312Z,74.10
2022-09-30T03:26:53.510Z,74.70
2022-09-30T03:32:09.636Z,75.60
2022-09-30T03:37:23.139Z,74.80
2022-09-30T03:42:30.727Z,74.60
2022-09-30T03:47:39.190Z,75.50
2022-09-30T03:52:44.346Z,76.40
2022-09-30T03:57:49.047Z,76.60
2022-09-30T04:02:57.075Z,75.90
2022-09-30T04:08:02.752Z,75.40
2022-09-30T04:13:06.041Z,74.90
2022-09-30T04:18:09.454Z,74.50
2022-09-30T04:23:14.088Z,74.40
2022-09-30T04:28:17.669Z,74.90
2022-09-30T04:33:21.044Z,75.80
2022-09-30T04:38:26.377Z,75.20
2022-09-30T04:43:30.029Z,75.20
2022-09-30T04:48:33.338Z,74.90
2022-09-30T04:53:37.979Z,74.60
2022-09-30T04:58:41.483Z,74.50
2022-09-30T05:03:45.971Z,75.30
2022-09-30T05:08:50.671Z,75.30
2022-09-30T05:13:54.000Z,75.50
2022-09-30T05:18:57.313Z,75.20
2022-09-30T05:24:02.670Z,75.10
2022-09-30T05:29:06.241Z,75.60
2022-09-30T05:34:09.981Z,75.80
2022-09-30T05:39:14.940Z,75.60
2022-09-30T05:44:19.290Z,75.10
2022-09-30T05:49:22.739Z,74.80
2022-09-30T05:54:27.801Z,75.20
2022-09-30T05:59:31.107Z,75.20
2022-09-30T06:04:34.779Z,75.90
2022-09-30T06:09:39.676Z,75.10
2022-09-30T06:14:42.996Z,74.50
2022-09-30T06:19:46.311Z,76.00
2022-09-30T06:24:55.004Z,76.40
2022-09-30T06:29:58.667Z,76.00
2022-09-30T06:35:03.781Z,76.90
2022-09-30T06:40:09.921Z,77.00
2022-09-30T06:45:25.670Z,76.30
2022-09-30T06:50:34.491Z,75.70
2022-09-30T06:55:40.704Z,76.30
2022-09-30T07:00:44.047Z,75.70
2022-09-30T07:05:47.497Z,76.20
2022-09-30T07:10:52.828Z,76.70
2022-09-30T07:15:57.113Z,77.00
2022-09-30T07:21:00.444Z,76.50
2022-09-30T07:26:07.876Z,76.50
2022-09-30T07:31:31.986Z,77.50
2022-09-30T07:36:38.089Z,76.90
2022-09-30T07:41:45.195Z,77.20
2022-09-30T07:46:48.678Z,76.60
2022-09-30T07:51:53.957Z,76.40
2022-09-30T07:57:15.160Z,76.10
2022-09-30T08:02:20.177Z,76.80
2022-09-30T08:07:24.066Z,76.90
2022-09-30T08:12:28.792Z,78.10
2022-09-30T08:17:32.020Z,77.60
2022-09-30T08:22:35.414Z,79.10
2022-09-30T08:27:40.310Z,77.80
2022-09-30T08:32:43.818Z,77.40
2022-09-30T08:37:47.155Z,77.50
2022-09-30T08:43:14.787Z,77.30
2022-09-30T08:48:29.893Z,77.20
2022-09-30T08:53:37.779Z,77.30
2022-09-30T08:58:46.388Z,77.50
2022-09-30T09:03:49.833Z,78.10
2022-09-30T09:09:26.075Z,77.50
2022-09-30T09:14:46.908Z,77.50
2022-09-30T09:19:57.354Z,77.10
2022-09-30T09:25:03.586Z,77.20
2022-09-30T09:30:11.794Z,77.10
2022-09-30T09:35:17.532Z,76.90
2022-09-30T09:40:34.318Z,76.90
2022-09-30T09:45:49.281Z,77.40
2022-09-30T09:51:02.206Z,76.70
2022-09-30T09:56:18.165Z,76.30
2022-09-30T10:01:33.157Z,76.10
2022-09-30T10:06:48.252Z,76.10
2022-09-30T10:11:51.819Z,75.90
2022-09-30T10:17:00.130Z,75.50
2022-09-30T10:22:19.984Z,75.40
2022-09-30T10:27:29.306Z,74.80
2022-09-30T10:32:34.426Z,74.60
2022-09-30T10:37:38.620Z,74.80
2022-09-30T10:42:47.174Z,74.40
2022-09-30T10:47:55.227Z,73.70
2022-09-30T10:53:00.420Z,72.80
2022-09-30T10:58:24.615Z,72.20
2022-09-30T11:03:38.802Z,72.20
2022-09-30T11:08:47.726Z,72.10
2022-09-30T11:13:57.470Z,69.70
2022-09-30T11:19:09.602Z,69.00
2022-09-30T11:24:22.709Z,68.90
2022-09-30T11:29:44.441Z,69.20
2022-09-30T11:35:02.535Z,67.00
2022-09-30T11:40:30.572Z,66.80
2022-09-30T11:45:42.416Z,64.80
2022-09-30T11:51:00.878Z,64.10
2022-09-30T11:56:15.622Z,65.80
2022-09-30T12:01:26.492Z,65.10
2022-09-30T12:06:37.334Z,65.30
2022-09-30T12:11:47.825Z,65.00
2022-09-30T12:16:51.816Z,64.20
2022-09-30T12:22:02.761Z,62.30
2022-09-30T12:27:15.078Z,61.40
2022-09-30T12:32:47.849Z,63.10
2022-09-30T12:38:10.277Z,62.60
2022-09-30T12:43:31.274Z,63.40
2022-09-30T12:48:39.496Z,63.60
2022-09-30T12:53:44.599Z,62.90
2022-09-30T12:58:51.251Z,63.50
2022-09-30T13:04:16.031Z,63.70
2022-09-30T13:09:23.310Z,62.20
2022-09-30T13:14:34.955Z,62.50
2022-09-30T13:19:41.503Z,62.00
2022-09-30T13:25:12.508Z,62.40
2022-09-30T13:30:34.630Z,62.30
2022-09-30T13:35:50.124Z,61.20
2022-09-30T13:41:02.297Z,60.90
2022-09-30T13:46:12.197Z,60.40
2022-09-30T13:51:19.671Z,59.90
2022-09-30T13:56:27.808Z,59.00
2022-09-30T14:01:54.625Z,58.10
2022-09-30T14:07:10.528Z,58.50
2022-09-30T14:12:30.940Z,58.10
2022-09-30T14:17:47.877Z,57.90
2022-09-30T14:22:51.453Z,57.60
2022-09-30T14:28:09.994Z,58.20
2022-09-30T14:33:23.701Z,57.90
2022-09-30T14:38:30.236Z,57.50
2022-09-30T14:43:42.538Z,58.10
2022-09-30T14:48:50.727Z,58.00
2022-09-30T14:53:56.069Z,57.30
2022-09-30T14:59:01.468Z,56.80
2022-09-30T15:04:09.113Z,55.20
2022-09-30T15:09:18.851Z,56.10
2022-09-30T15:14:24.871Z,56.00
2022-09-30T15:19:30.109Z,56.50
2022-09-30T15:24:34.505Z,56.10
2022-09-30T15:29:39.438Z,56.40
2022-09-30T15:34:46.116Z,56.40
2022-09-30T15:40:08.111Z,56.00
2022-09-30T15:45:35.735Z,55.70
2022-09-30T15:50:42.131Z,56.80
2022-09-30T15:55:48.289Z,55.70
2022-09-30T16:00:54.259Z,56.10
2022-09-30T16:06:07.964Z,56.40
2022-09-30T16:11:19.117Z,57.00
2022-09-30T16:16:27.442Z,56.70
2022-09-30T16:21:50.851Z,56.60
2022-09-30T16:26:56.218Z,56.80
2022-09-30T16:32:04.690Z,57.30
2022-09-30T16:37:13.818Z,58.80
2022-09-30T16:42:18.653Z,58.70
2022-09-30T16:47:23.635Z,59.00
2022-09-30T16:52:27.151Z,59.40
2022-09-30T16:57:30.728Z,61.30
2022-09-30T17:02:35.462Z,60.40
2022-09-30T17:07:38.969Z,61.00
2022-09-30T17:12:42.525Z,61.70
2022-09-30T17:17:47.985Z,61.60
2022-09-30T17:22:51.759Z,62.00
2022-09-30T17:27:59.869Z,62.20
2022-09-30T17:33:04.827Z,62.20
2022-09-30T17:38:08.798Z,62.50
2022-09-30T17:43:13.161Z,62.90
2022-09-30T17:48:19.542Z,63.30
2022-09-30T17:53:24.161Z,64.40
2022-09-30T17:58:28.574Z,63.10
2022-09-30T18:03:33.467Z,63.30
2022-09-30T18:08:36.872Z,63.40
2022-09-30T18:13:40.561Z,63.30
2022-09-30T18:18:45.292Z,63.70
2022-09-30T18:23:51.278Z,63.80
2022-09-30T18:28:55.886Z,63.80
2022-09-30T18:34:10.777Z,64.10
2022-09-30T18:39:16.564Z,64.20
2022-09-30T18:44:20.577Z,64.50
2022-09-30T18:49:26.866Z,64.60
2022-09-30T18:54:31.541Z,64.50
2022-09-30T18:59:35.093Z,65.20
2022-09-30T19:04:43.264Z,65.60
2022-09-30T19:09:50.515Z,65.90
2022-09-30T19:14:55.561Z,66.30
2022-09-30T19:20:01.553Z,66.60
2022-09-30T19:25:11.966Z,67.00
2022-09-30T19:30:17.320Z,67.60
2022-09-30T19:35:35.067Z,67.60
2022-09-30T19:40:44.142Z,67.90
2022-09-30T19:45:56.012Z,69.30
2022-09-30T19:51:03.445Z,71.70
2022-09-30T19:56:12.635Z,69.30
2022-09-30T20:01:18.327Z,69.30
2022-09-30T20:06:23.662Z,69.30
2022-09-30T20:11:29.928Z,69.40
2022-09-30T20:16:34.050Z,69.30
2022-09-30T20:21:41.782Z,69.30
2022-09-30T20:26:47.119Z,69.30
2022-09-30T20:31:51.712Z,69.70
2022-09-30T20:36:56.812Z,69.90
2022-09-30T20:42:00.199Z,69.80
2022-09-30T20:47:03.830Z,69.80
2022-09-30T20:52:08.783Z,70.00
2022-09-30T20:57:12.218Z,70.30
2022-09-30T21:02:16.101Z,70.20
2022-09-30T21:07:21.173Z,70.40
2022-09-30T21:12:24.502Z,70.30
2022-09-30T21:17:28.069Z,70.20
2022-09-30T21:22:32.797Z,70.40
2022-09-30T21:27:36.212Z,70.40
2022-09-30T21:32:43.214Z,70.50
2022-09-30T21:37:49.748Z,70.50
2022-09-30T21:42:53.119Z,70.80
2022-09-30T21:48:02.176Z,70.90
2022-09-30T21:53:06.909Z,71.00
2022-09-30T21:58:10.319Z,71.20
2022-09-30T22:03:13.979Z,71.00
2022-09-30T22:08:18.812Z,71.20
2022-09-30T22:13:22.489Z,71.30
2022-09-30T22:18:25.960Z,71.40
2022-09-30T22:23:30.930Z,71.50
2022-09-30T22:28:34.331Z,71.70
2022-09-30T22:33:54.963Z,71.80
2022-09-30T22:38:59.726Z,72.00
2022-09-30T22:44:03.345Z,71.80
2022-09-30T22:49:07.657Z,72.00
2022-09-30T22:54:12.589Z,72.90
2022-09-30T22:59:16.618Z,71.80
2022-09-30T23:04:20.513Z,71.60
2022-09-30T23:09:25.840Z,72.00
2022-09-30T23:14:29.479Z,72.20
2022-09-30T23:19:32.835Z,72.30
2022-09-30T23:24:37.774Z,72.50
2022-09-30T23:29:41.139Z,72.90
2022-09-30T23:34:44.513Z,72.80
2022-09-30T23:39:49.417Z,73.00
2022-09-30T23:44:52.794Z,73.20
2022-09-30T23:49:56.500Z,74.30
2022-09-30T23:55:01.397Z,74.30
